sensor_id;sensor_type;location;lat;lon;timestamp;temperature;humidity
9033;DHT22;4551;53.164;8.210;2023-02-26T00:01:30;0.60;99.90
9033;DHT22;4551;53.164;8.210;2023-02-26T00:04:00;0.60;99.90
9033;DHT22;4551;53.164;8.210;2023-02-26T00:06:30;0.60;99.90
9033;DHT22;4551;53.164;8.210;2023-02-26T00:08:59;0.50;99.90
9033;DHT22;4551;53.164;8.210;2023-02-26T00:11:28;0.60;99.90
9033;DHT22;4551;53.164;8.210;2023-02-26T00:13:57;0.50;99.90
9033;DHT22;4551;53.164;8.210;2023-02-26T00:16:26;0.50;99.90
9033;DHT22;4551;53.164;8.210;2023-02-26T00:18:55;0.50;99.90
9033;DHT22;4551;53.164;8.210;2023-02-26T00:21:24;0.50;99.90
9033;DHT22;4551;53.164;8.210;2023-02-26T00:23:52;0.50;99.90
9033;DHT22;4551;53.164;8.210;2023-02-26T00:26:22;0.50;99.90
9033;DHT22;4551;53.164;8.210;2023-02-26T00:28:52;0.80;99.90
9033;DHT22;4551;53.164;8.210;2023-02-26T00:31:20;0.50;99.90
9033;DHT22;4551;53.164;8.210;2023-02-26T00:33:52;0.50;99.90
9033;DHT22;4551;53.164;8.210;2023-02-26T00:36:24;0.50;99.90
9033;DHT22;4551;53.164;8.210;2023-02-26T00:39:00;0.50;99.90
9033;DHT22;4551;53.164;8.210;2023-02-26T00:41:33;0.50;99.90
9033;DHT22;4551;53.164;8.210;2023-02-26T00:44:04;0.50;99.90
9033;DHT22;4551;53.164;8.210;2023-02-26T00:46:36;0.40;99.90
9033;DHT22;4551;53.164;8.210;2023-02-26T00:49:10;0.40;99.90
9033;DHT22;4551;53.164;8.210;2023-02-26T00:51:41;0.40;99.90
9033;DHT22;4551;53.164;8.210;2023-02-26T00:54:17;0.40;99.90
9033;DHT22;4551;53.164;8.210;2023-02-26T00:56:45;0.40;99.90
9033;DHT22;4551;53.164;8.210;2023-02-26T00:59:16;0.40;99.90
9033;DHT22;4551;53.164;8.210;2023-02-26T01:01:44;0.40;99.90
9033;DHT22;4551;53.164;8.210;2023-02-26T01:04:13;0.40;99.90
9033;DHT22;4551;53.164;8.210;2023-02-26T01:06:42;0.30;99.90
9033;DHT22;4551;53.164;8.210;2023-02-26T01:09:13;0.30;99.90
9033;DHT22;4551;53.164;8.210;2023-02-26T01:11:42;0.30;99.90
9033;DHT22;4551;53.164;8.210;2023-02-26T01:14:13;0.30;99.90
9033;DHT22;4551;53.164;8.210;2023-02-26T01:16:46;0.30;99.90
9033;DHT22;4551;53.164;8.210;2023-02-26T01:19:17;0.30;99.90
9033;DHT22;4551;53.164;8.210;2023-02-26T01:21:48;0.40;99.90
9033;DHT22;4551;53.164;8.210;2023-02-26T01:24:23;0.30;99.90
9033;DHT22;4551;53.164;8.210;2023-02-26T01:26:52;0.30;99.90
9033;DHT22;4551;53.164;8.210;2023-02-26T01:29:20;0.30;99.90
9033;DHT22;4551;53.164;8.210;2023-02-26T01:31:51;0.30;99.90
9033;DHT22;4551;53.164;8.210;2023-02-26T01:34:22;0.30;99.90
9033;DHT22;4551;53.164;8.210;2023-02-26T01:36:53;0.30;99.90
9033;DHT22;4551;53.164;8.210;2023-02-26T01:39:25;0.30;99.90
9033;DHT22;4551;53.164;8.210;2023-02-26T01:41:55;0.30;99.90
9033;DHT22;4551;53.164;8.210;2023-02-26T01:44:25;0.40;99.90
9033;DHT22;4551;53.164;8.210;2023-02-26T01:47:03;0.40;99.90
9033;DHT22;4551;53.164;8.210;2023-02-26T01:49:31;0.40;99.90
9033;DHT22;4551;53.164;8.210;2023-02-26T01:52:00;0.30;99.90
9033;DHT22;4551;53.164;8.210;2023-02-26T01:54:31;0.30;99.90
9033;DHT22;4551;53.164;8.210;2023-02-26T01:57:00;0.30;99.90
9033;DHT22;4551;53.164;8.210;2023-02-26T01:59:31;0.30;99.90
9033;DHT22;4551;53.164;8.210;2023-02-26T02:02:00;0.30;99.90
9033;DHT22;4551;53.164;8.210;2023-02-26T02:04:31;0.30;99.90
9033;DHT22;4551;53.164;8.210;2023-02-26T02:06:59;0.20;99.90
9033;DHT22;4551;53.164;8.210;2023-02-26T02:09:28;0.20;99.90
9033;DHT22;4551;53.164;8.210;2023-02-26T02:12:04;0.20;99.90
9033;DHT22;4551;53.164;8.210;2023-02-26T02:14:37;0.20;99.90
9033;DHT22;4551;53.164;8.210;2023-02-26T02:17:09;0.20;99.90
9033;DHT22;4551;53.164;8.210;2023-02-26T02:19:47;0.20;99.90
9033;DHT22;4551;53.164;8.210;2023-02-26T02:22:21;-0.30;99.90
9033;DHT22;4551;53.164;8.210;2023-02-26T02:24:57;0.20;99.90
9033;DHT22;4551;53.164;8.210;2023-02-26T02:27:34;0.20;99.90
9033;DHT22;4551;53.164;8.210;2023-02-26T02:30:08;0.10;99.90
9033;DHT22;4551;53.164;8.210;2023-02-26T02:32:44;0.20;99.90
9033;DHT22;4551;53.164;8.210;2023-02-26T02:35:14;0.20;99.90
9033;DHT22;4551;53.164;8.210;2023-02-26T02:37:46;0.10;99.90
9033;DHT22;4551;53.164;8.210;2023-02-26T02:40:16;0.20;99.90
9033;DHT22;4551;53.164;8.210;2023-02-26T02:42:48;0.10;99.90
9033;DHT22;4551;53.164;8.210;2023-02-26T02:45:18;0.10;99.90
9033;DHT22;4551;53.164;8.210;2023-02-26T02:47:52;0.10;99.90
9033;DHT22;4551;53.164;8.210;2023-02-26T02:50:22;0.20;99.90
9033;DHT22;4551;53.164;8.210;2023-02-26T02:52:55;0.20;99.90
9033;DHT22;4551;53.164;8.210;2023-02-26T02:55:25;0.30;99.90
9033;DHT22;4551;53.164;8.210;2023-02-26T02:57:56;0.10;99.90
9033;DHT22;4551;53.164;8.210;2023-02-26T03:00:27;0.10;99.90
9033;DHT22;4551;53.164;8.210;2023-02-26T03:02:58;0.10;99.90
9033;DHT22;4551;53.164;8.210;2023-02-26T03:05:29;0.00;99.90
9033;DHT22;4551;53.164;8.210;2023-02-26T03:08:01;0.20;99.90
9033;DHT22;4551;53.164;8.210;2023-02-26T03:10:29;0.20;99.90
9033;DHT22;4551;53.164;8.210;2023-02-26T03:12:57;0.10;99.90
9033;DHT22;4551;53.164;8.210;2023-02-26T03:15:29;0.20;99.90
9033;DHT22;4551;53.164;8.210;2023-02-26T03:18:02;0.10;99.90
9033;DHT22;4551;53.164;8.210;2023-02-26T03:20:46;0.00;99.90
9033;DHT22;4551;53.164;8.210;2023-02-26T03:23:18;0.00;99.90
9033;DHT22;4551;53.164;8.210;2023-02-26T03:25:49;0.10;99.90
9033;DHT22;4551;53.164;8.210;2023-02-26T03:28:19;0.30;99.90
9033;DHT22;4551;53.164;8.210;2023-02-26T03:30:55;0.20;99.90
9033;DHT22;4551;53.164;8.210;2023-02-26T03:33:26;0.30;99.90
9033;DHT22;4551;53.164;8.210;2023-02-26T03:36:00;0.30;99.90
9033;DHT22;4551;53.164;8.210;2023-02-26T03:38:31;0.20;99.90
9033;DHT22;4551;53.164;8.210;2023-02-26T03:41:02;0.10;99.90
9033;DHT22;4551;53.164;8.210;2023-02-26T03:43:32;0.20;99.90
9033;DHT22;4551;53.164;8.210;2023-02-26T03:46:01;0.00;99.90
9033;DHT22;4551;53.164;8.210;2023-02-26T03:48:35;0.00;99.90
9033;DHT22;4551;53.164;8.210;2023-02-26T03:51:04;0.00;99.90
9033;DHT22;4551;53.164;8.210;2023-02-26T03:53:35;0.70;99.90
9033;DHT22;4551;53.164;8.210;2023-02-26T03:56:06;-0.10;99.90
9033;DHT22;4551;53.164;8.210;2023-02-26T03:58:34;0.00;99.90
9033;DHT22;4551;53.164;8.210;2023-02-26T04:01:03;0.00;99.90
9033;DHT22;4551;53.164;8.210;2023-02-26T04:03:32;0.00;99.90
9033;DHT22;4551;53.164;8.210;2023-02-26T04:06:03;0.00;99.90
9033;DHT22;4551;53.164;8.210;2023-02-26T04:08:31;-0.10;99.90
9033;DHT22;4551;53.164;8.210;2023-02-26T04:11:02;0.00;99.90
9033;DHT22;4551;53.164;8.210;2023-02-26T04:13:32;-0.10;99.90
9033;DHT22;4551;53.164;8.210;2023-02-26T04:16:00;-0.10;99.90
9033;DHT22;4551;53.164;8.210;2023-02-26T04:18:28;-0.10;99.90
9033;DHT22;4551;53.164;8.210;2023-02-26T04:20:56;-0.10;99.90
9033;DHT22;4551;53.164;8.210;2023-02-26T04:23:25;0.00;99.90
9033;DHT22;4551;53.164;8.210;2023-02-26T04:25:53;0.00;99.90
9033;DHT22;4551;53.164;8.210;2023-02-26T04:28:21;0.00;99.90
9033;DHT22;4551;53.164;8.210;2023-02-26T04:30:53;-0.10;99.90
9033;DHT22;4551;53.164;8.210;2023-02-26T04:33:22;0.00;99.90
9033;DHT22;4551;53.164;8.210;2023-02-26T04:35:50;-0.10;99.90
9033;DHT22;4551;53.164;8.210;2023-02-26T04:38:18;0.10;99.90
9033;DHT22;4551;53.164;8.210;2023-02-26T04:40:50;0.00;99.90
9033;DHT22;4551;53.164;8.210;2023-02-26T04:43:18;0.00;99.90
9033;DHT22;4551;53.164;8.210;2023-02-26T04:45:47;0.00;99.90
9033;DHT22;4551;53.164;8.210;2023-02-26T04:48:16;0.00;99.90
9033;DHT22;4551;53.164;8.210;2023-02-26T04:50:46;-0.30;99.90
9033;DHT22;4551;53.164;8.210;2023-02-26T04:53:14;-0.10;99.90
9033;DHT22;4551;53.164;8.210;2023-02-26T04:55:46;-0.10;99.90
9033;DHT22;4551;53.164;8.210;2023-02-26T04:58:19;-0.10;99.90
9033;DHT22;4551;53.164;8.210;2023-02-26T05:00:56;0.00;99.90
9033;DHT22;4551;53.164;8.210;2023-02-26T05:03:24;0.10;99.90
9033;DHT22;4551;53.164;8.210;2023-02-26T05:05:52;0.00;99.90
9033;DHT22;4551;53.164;8.210;2023-02-26T05:08:20;0.10;99.90
9033;DHT22;4551;53.164;8.210;2023-02-26T05:10:50;-0.10;99.90
9033;DHT22;4551;53.164;8.210;2023-02-26T05:13:20;-0.20;99.90
9033;DHT22;4551;53.164;8.210;2023-02-26T05:15:51;0.10;99.90
9033;DHT22;4551;53.164;8.210;2023-02-26T05:18:20;-0.10;99.90
9033;DHT22;4551;53.164;8.210;2023-02-26T05:20:50;-0.30;99.90
9033;DHT22;4551;53.164;8.210;2023-02-26T05:23:18;-0.10;99.90
9033;DHT22;4551;53.164;8.210;2023-02-26T05:25:47;0.30;99.90
9033;DHT22;4551;53.164;8.210;2023-02-26T05:28:15;0.40;99.90
9033;DHT22;4551;53.164;8.210;2023-02-26T05:30:44;-0.10;99.90
9033;DHT22;4551;53.164;8.210;2023-02-26T05:33:12;-0.10;99.90
9033;DHT22;4551;53.164;8.210;2023-02-26T05:35:40;-0.10;99.90
9033;DHT22;4551;53.164;8.210;2023-02-26T05:38:08;-0.40;99.90
9033;DHT22;4551;53.164;8.210;2023-02-26T05:40:41;-0.10;99.90
9033;DHT22;4551;53.164;8.210;2023-02-26T05:43:18;0.00;99.90
9033;DHT22;4551;53.164;8.210;2023-02-26T05:45:51;-0.10;99.90
9033;DHT22;4551;53.164;8.210;2023-02-26T05:48:19;-0.10;99.90
9033;DHT22;4551;53.164;8.210;2023-02-26T05:50:48;-0.20;99.90
9033;DHT22;4551;53.164;8.210;2023-02-26T05:53:18;-0.10;99.90
9033;DHT22;4551;53.164;8.210;2023-02-26T05:55:46;0.00;99.90
9033;DHT22;4551;53.164;8.210;2023-02-26T05:58:16;-0.10;99.90
9033;DHT22;4551;53.164;8.210;2023-02-26T06:00:44;-0.10;99.90
9033;DHT22;4551;53.164;8.210;2023-02-26T06:03:18;-0.10;99.90
9033;DHT22;4551;53.164;8.210;2023-02-26T06:05:52;-0.10;99.90
9033;DHT22;4551;53.164;8.210;2023-02-26T06:08:20;0.00;99.90
9033;DHT22;4551;53.164;8.210;2023-02-26T06:10:48;-0.10;99.90
9033;DHT22;4551;53.164;8.210;2023-02-26T06:13:17;-0.10;99.90
9033;DHT22;4551;53.164;8.210;2023-02-26T06:15:48;-0.10;99.90
9033;DHT22;4551;53.164;8.210;2023-02-26T06:18:16;-0.20;99.90
9033;DHT22;4551;53.164;8.210;2023-02-26T06:20:45;-0.10;99.90
9033;DHT22;4551;53.164;8.210;2023-02-26T06:23:13;-0.10;99.90
9033;DHT22;4551;53.164;8.210;2023-02-26T06:25:41;-0.10;99.90
9033;DHT22;4551;53.164;8.210;2023-02-26T06:28:15;-0.20;99.90
9033;DHT22;4551;53.164;8.210;2023-02-26T06:30:43;-0.10;99.90
9033;DHT22;4551;53.164;8.210;2023-02-26T06:33:11;-0.10;99.90
9033;DHT22;4551;53.164;8.210;2023-02-26T06:35:42;-0.10;99.90
9033;DHT22;4551;53.164;8.210;2023-02-26T06:38:11;1.00;99.90
9033;DHT22;4551;53.164;8.210;2023-02-26T06:40:39;0.00;99.90
9033;DHT22;4551;53.164;8.210;2023-02-26T06:43:07;-0.10;99.90
9033;DHT22;4551;53.164;8.210;2023-02-26T06:45:37;-0.10;99.90
9033;DHT22;4551;53.164;8.210;2023-02-26T06:48:05;-0.10;99.90
9033;DHT22;4551;53.164;8.210;2023-02-26T06:50:35;-0.10;99.90
9033;DHT22;4551;53.164;8.210;2023-02-26T06:53:03;-0.10;99.90
9033;DHT22;4551;53.164;8.210;2023-02-26T06:55:32;-0.10;99.90
9033;DHT22;4551;53.164;8.210;2023-02-26T06:58:03;0.00;99.90
9033;DHT22;4551;53.164;8.210;2023-02-26T07:00:31;0.10;99.90
9033;DHT22;4551;53.164;8.210;2023-02-26T07:02:59;0.00;99.90
9033;DHT22;4551;53.164;8.210;2023-02-26T07:05:27;0.00;99.90
9033;DHT22;4551;53.164;8.210;2023-02-26T07:07:55;0.10;99.90
9033;DHT22;4551;53.164;8.210;2023-02-26T07:10:23;0.10;99.90
9033;DHT22;4551;53.164;8.210;2023-02-26T07:12:53;0.30;99.90
9033;DHT22;4551;53.164;8.210;2023-02-26T07:15:22;0.10;99.90
9033;DHT22;4551;53.164;8.210;2023-02-26T07:17:50;0.20;99.90
9033;DHT22;4551;53.164;8.210;2023-02-26T07:20:18;0.30;99.90
9033;DHT22;4551;53.164;8.210;2023-02-26T07:22:46;0.30;99.90
9033;DHT22;4551;53.164;8.210;2023-02-26T07:25:14;0.40;99.90
9033;DHT22;4551;53.164;8.210;2023-02-26T07:27:42;0.40;99.90
9033;DHT22;4551;53.164;8.210;2023-02-26T07:30:12;0.10;99.90
9033;DHT22;4551;53.164;8.210;2023-02-26T07:32:44;0.30;99.90
9033;DHT22;4551;53.164;8.210;2023-02-26T07:35:14;0.50;99.90
9033;DHT22;4551;53.164;8.210;2023-02-26T07:37:42;0.40;99.90
9033;DHT22;4551;53.164;8.210;2023-02-26T07:40:10;0.40;99.90
9033;DHT22;4551;53.164;8.210;2023-02-26T07:42:38;0.50;99.90
9033;DHT22;4551;53.164;8.210;2023-02-26T07:45:07;0.50;99.90
9033;DHT22;4551;53.164;8.210;2023-02-26T07:47:39;0.60;99.90
9033;DHT22;4551;53.164;8.210;2023-02-26T07:50:07;0.30;99.90
9033;DHT22;4551;53.164;8.210;2023-02-26T07:52:39;0.70;99.90
9033;DHT22;4551;53.164;8.210;2023-02-26T07:55:10;0.70;99.90
9033;DHT22;4551;53.164;8.210;2023-02-26T07:57:38;0.80;99.90
9033;DHT22;4551;53.164;8.210;2023-02-26T08:00:06;0.90;99.90
9033;DHT22;4551;53.164;8.210;2023-02-26T08:02:35;0.80;99.90
9033;DHT22;4551;53.164;8.210;2023-02-26T08:05:05;0.90;99.90
9033;DHT22;4551;53.164;8.210;2023-02-26T08:07:33;0.90;99.90
9033;DHT22;4551;53.164;8.210;2023-02-26T08:10:01;0.80;99.90
9033;DHT22;4551;53.164;8.210;2023-02-26T08:12:31;1.10;99.90
9033;DHT22;4551;53.164;8.210;2023-02-26T08:15:02;1.00;99.90
9033;DHT22;4551;53.164;8.210;2023-02-26T08:17:32;1.20;99.90
9033;DHT22;4551;53.164;8.210;2023-02-26T08:20:02;1.00;99.90
9033;DHT22;4551;53.164;8.210;2023-02-26T08:22:36;1.30;99.90
9033;DHT22;4551;53.164;8.210;2023-02-26T08:25:07;1.20;99.90
9033;DHT22;4551;53.164;8.210;2023-02-26T08:27:35;1.40;99.90
9033;DHT22;4551;53.164;8.210;2023-02-26T08:30:03;1.50;99.90
9033;DHT22;4551;53.164;8.210;2023-02-26T08:32:33;1.50;99.90
9033;DHT22;4551;53.164;8.210;2023-02-26T08:35:01;1.70;99.90
9033;DHT22;4551;53.164;8.210;2023-02-26T08:37:29;1.60;99.90
9033;DHT22;4551;53.164;8.210;2023-02-26T08:39:59;1.60;99.90
9033;DHT22;4551;53.164;8.210;2023-02-26T08:42:31;1.70;99.90
9033;DHT22;4551;53.164;8.210;2023-02-26T08:44:59;1.70;99.90
9033;DHT22;4551;53.164;8.210;2023-02-26T08:47:27;1.80;99.90
9033;DHT22;4551;53.164;8.210;2023-02-26T08:49:58;1.80;99.90
9033;DHT22;4551;53.164;8.210;2023-02-26T08:52:28;1.80;99.90
9033;DHT22;4551;53.164;8.210;2023-02-26T08:54:56;1.90;99.90
9033;DHT22;4551;53.164;8.210;2023-02-26T08:57:25;1.90;99.90
9033;DHT22;4551;53.164;8.210;2023-02-26T09:00:00;1.90;99.90
9033;DHT22;4551;53.164;8.210;2023-02-26T09:02:33;2.00;99.90
9033;DHT22;4551;53.164;8.210;2023-02-26T09:05:01;2.00;99.90
9033;DHT22;4551;53.164;8.210;2023-02-26T09:07:29;2.10;99.90
9033;DHT22;4551;53.164;8.210;2023-02-26T09:09:57;2.10;99.90
9033;DHT22;4551;53.164;8.210;2023-02-26T09:12:26;2.10;99.90
9033;DHT22;4551;53.164;8.210;2023-02-26T09:14:54;2.20;99.90
9033;DHT22;4551;53.164;8.210;2023-02-26T09:17:24;2.20;99.90
9033;DHT22;4551;53.164;8.210;2023-02-26T09:19:56;2.30;99.90
9033;DHT22;4551;53.164;8.210;2023-02-26T09:22:24;2.30;99.90
9033;DHT22;4551;53.164;8.210;2023-02-26T09:24:52;2.30;99.90
9033;DHT22;4551;53.164;8.210;2023-02-26T09:27:20;2.40;99.90
9033;DHT22;4551;53.164;8.210;2023-02-26T09:29:50;2.40;99.90
9033;DHT22;4551;53.164;8.210;2023-02-26T09:32:20;2.40;99.90
9033;DHT22;4551;53.164;8.210;2023-02-26T09:34:51;2.50;99.90
9033;DHT22;4551;53.164;8.210;2023-02-26T09:37:20;2.60;99.90
9033;DHT22;4551;53.164;8.210;2023-02-26T09:39:47;2.60;99.90
9033;DHT22;4551;53.164;8.210;2023-02-26T09:42:31;2.60;99.90
9033;DHT22;4551;53.164;8.210;2023-02-26T09:45:04;2.60;99.90
9033;DHT22;4551;53.164;8.210;2023-02-26T09:47:33;2.70;99.90
9033;DHT22;4551;53.164;8.210;2023-02-26T09:50:08;2.70;99.90
9033;DHT22;4551;53.164;8.210;2023-02-26T09:52:42;2.70;99.90
9033;DHT22;4551;53.164;8.210;2023-02-26T09:55:13;2.70;99.90
9033;DHT22;4551;53.164;8.210;2023-02-26T09:57:44;2.80;99.90
9033;DHT22;4551;53.164;8.210;2023-02-26T10:00:19;2.80;99.90
9033;DHT22;4551;53.164;8.210;2023-02-26T10:02:51;2.80;99.90
9033;DHT22;4551;53.164;8.210;2023-02-26T10:05:25;2.90;99.90
9033;DHT22;4551;53.164;8.210;2023-02-26T10:07:56;2.90;99.90
9033;DHT22;4551;53.164;8.210;2023-02-26T10:10:29;2.90;99.90
9033;DHT22;4551;53.164;8.210;2023-02-26T10:13:00;3.00;99.90
9033;DHT22;4551;53.164;8.210;2023-02-26T10:15:31;3.00;99.90
9033;DHT22;4551;53.164;8.210;2023-02-26T10:18:04;3.00;99.90
9033;DHT22;4551;53.164;8.210;2023-02-26T10:20:33;3.10;99.90
9033;DHT22;4551;53.164;8.210;2023-02-26T10:23:03;3.20;99.90
9033;DHT22;4551;53.164;8.210;2023-02-26T10:25:35;3.30;99.90
9033;DHT22;4551;53.164;8.210;2023-02-26T10:28:07;3.30;99.90
9033;DHT22;4551;53.164;8.210;2023-02-26T10:30:38;3.40;99.90
9033;DHT22;4551;53.164;8.210;2023-02-26T10:33:11;3.40;99.90
9033;DHT22;4551;53.164;8.210;2023-02-26T10:35:41;3.50;99.90
9033;DHT22;4551;53.164;8.210;2023-02-26T10:38:16;3.50;99.90
9033;DHT22;4551;53.164;8.210;2023-02-26T10:40:46;3.50;99.90
9033;DHT22;4551;53.164;8.210;2023-02-26T10:43:18;3.50;99.90
9033;DHT22;4551;53.164;8.210;2023-02-26T10:45:50;3.60;99.90
9033;DHT22;4551;53.164;8.210;2023-02-26T10:48:29;3.60;99.90
9033;DHT22;4551;53.164;8.210;2023-02-26T10:51:05;3.60;99.90
9033;DHT22;4551;53.164;8.210;2023-02-26T10:53:40;3.70;99.90
9033;DHT22;4551;53.164;8.210;2023-02-26T10:56:10;3.80;99.90
9033;DHT22;4551;53.164;8.210;2023-02-26T10:58:41;3.80;99.90
9033;DHT22;4551;53.164;8.210;2023-02-26T11:01:21;3.80;99.90
9033;DHT22;4551;53.164;8.210;2023-02-26T11:03:52;3.80;99.90
9033;DHT22;4551;53.164;8.210;2023-02-26T11:06:26;3.80;99.90
9033;DHT22;4551;53.164;8.210;2023-02-26T11:08:55;3.80;99.90
9033;DHT22;4551;53.164;8.210;2023-02-26T11:11:38;3.90;99.90
9033;DHT22;4551;53.164;8.210;2023-02-26T11:14:10;3.90;99.90
9033;DHT22;4551;53.164;8.210;2023-02-26T11:16:45;4.00;99.90
9033;DHT22;4551;53.164;8.210;2023-02-26T11:19:14;4.00;99.90
9033;DHT22;4551;53.164;8.210;2023-02-26T11:21:43;4.00;99.90
9033;DHT22;4551;53.164;8.210;2023-02-26T11:24:12;4.10;99.90
9033;DHT22;4551;53.164;8.210;2023-02-26T11:26:45;4.10;99.90
9033;DHT22;4551;53.164;8.210;2023-02-26T11:29:14;4.10;99.90
9033;DHT22;4551;53.164;8.210;2023-02-26T11:31:43;4.10;99.90
9033;DHT22;4551;53.164;8.210;2023-02-26T11:34:14;4.20;99.90
9033;DHT22;4551;53.164;8.210;2023-02-26T11:36:43;4.20;99.90
9033;DHT22;4551;53.164;8.210;2023-02-26T11:39:13;4.20;99.90
9033;DHT22;4551;53.164;8.210;2023-02-26T11:41:47;4.30;99.90
9033;DHT22;4551;53.164;8.210;2023-02-26T11:44:16;4.30;99.90
9033;DHT22;4551;53.164;8.210;2023-02-26T11:46:49;4.40;99.90
9033;DHT22;4551;53.164;8.210;2023-02-26T11:49:23;4.50;99.90
9033;DHT22;4551;53.164;8.210;2023-02-26T11:52:05;4.70;99.90
9033;DHT22;4551;53.164;8.210;2023-02-26T11:54:43;4.80;99.90
9033;DHT22;4551;53.164;8.210;2023-02-26T11:57:14;4.90;99.90
9033;DHT22;4551;53.164;8.210;2023-02-26T11:59:46;5.00;99.90
9033;DHT22;4551;53.164;8.210;2023-02-26T12:02:19;5.00;99.90
9033;DHT22;4551;53.164;8.210;2023-02-26T12:04:49;5.00;99.90
9033;DHT22;4551;53.164;8.210;2023-02-26T12:07:20;5.10;99.90
9033;DHT22;4551;53.164;8.210;2023-02-26T12:09:49;5.20;99.90
9033;DHT22;4551;53.164;8.210;2023-02-26T12:12:20;5.30;99.90
9033;DHT22;4551;53.164;8.210;2023-02-26T12:14:53;5.40;99.90
9033;DHT22;4551;53.164;8.210;2023-02-26T12:17:32;5.50;99.90
9033;DHT22;4551;53.164;8.210;2023-02-26T12:20:05;5.60;99.90
9033;DHT22;4551;53.164;8.210;2023-02-26T12:22:48;5.80;99.90
9033;DHT22;4551;53.164;8.210;2023-02-26T12:25:22;5.80;99.90
9033;DHT22;4551;53.164;8.210;2023-02-26T12:28:00;5.90;99.90
9033;DHT22;4551;53.164;8.210;2023-02-26T12:30:39;5.90;99.90
9033;DHT22;4551;53.164;8.210;2023-02-26T12:33:12;5.80;99.90
9033;DHT22;4551;53.164;8.210;2023-02-26T12:35:46;5.80;99.90
9033;DHT22;4551;53.164;8.210;2023-02-26T12:38:20;5.80;99.90
9033;DHT22;4551;53.164;8.210;2023-02-26T12:43:41;5.70;99.90
9033;DHT22;4551;53.164;8.210;2023-02-26T12:46:17;5.70;99.90
9033;DHT22;4551;53.164;8.210;2023-02-26T12:49:02;5.80;99.90
9033;DHT22;4551;53.164;8.210;2023-02-26T12:51:41;5.80;99.90
9033;DHT22;4551;53.164;8.210;2023-02-26T12:54:19;6.10;99.90
9033;DHT22;4551;53.164;8.210;2023-02-26T12:59:39;6.60;99.90
9033;DHT22;4551;53.164;8.210;2023-02-26T13:02:17;6.90;99.90
9033;DHT22;4551;53.164;8.210;2023-02-26T13:04:58;7.10;99.90
9033;DHT22;4551;53.164;8.210;2023-02-26T13:10:18;7.40;99.90
9033;DHT22;4551;53.164;8.210;2023-02-26T13:12:52;7.40;99.90
9033;DHT22;4551;53.164;8.210;2023-02-26T13:15:31;7.50;99.90
9033;DHT22;4551;53.164;8.210;2023-02-26T13:18:01;7.60;99.90
9033;DHT22;4551;53.164;8.210;2023-02-26T13:20:35;7.50;99.90
9033;DHT22;4551;53.164;8.210;2023-02-26T13:23:08;7.40;99.90
9033;DHT22;4551;53.164;8.210;2023-02-26T13:25:39;7.60;99.90
9033;DHT22;4551;53.164;8.210;2023-02-26T13:28:10;7.70;99.90
9033;DHT22;4551;53.164;8.210;2023-02-26T13:30:47;7.80;99.90
9033;DHT22;4551;53.164;8.210;2023-02-26T13:33:18;7.80;99.90
9033;DHT22;4551;53.164;8.210;2023-02-26T13:35:49;8.10;99.90
9033;DHT22;4551;53.164;8.210;2023-02-26T13:38:20;8.40;99.90
9033;DHT22;4551;53.164;8.210;2023-02-26T13:40:53;8.20;99.90
9033;DHT22;4551;53.164;8.210;2023-02-26T13:43:31;7.90;99.90
9033;DHT22;4551;53.164;8.210;2023-02-26T13:46:04;8.10;99.90
9033;DHT22;4551;53.164;8.210;2023-02-26T13:48:39;8.20;99.90
9033;DHT22;4551;53.164;8.210;2023-02-26T13:51:11;8.60;99.90
9033;DHT22;4551;53.164;8.210;2023-02-26T13:53:53;8.50;99.90
9033;DHT22;4551;53.164;8.210;2023-02-26T13:56:47;8.40;99.90
9033;DHT22;4551;53.164;8.210;2023-02-26T13:59:23;8.60;99.90
9033;DHT22;4551;53.164;8.210;2023-02-26T14:01:52;8.50;99.90
9033;DHT22;4551;53.164;8.210;2023-02-26T14:04:24;8.30;99.90
9033;DHT22;4551;53.164;8.210;2023-02-26T14:06:55;8.20;99.90
9033;DHT22;4551;53.164;8.210;2023-02-26T14:09:33;8.50;99.90
9033;DHT22;4551;53.164;8.210;2023-02-26T14:12:18;8.70;99.90
9033;DHT22;4551;53.164;8.210;2023-02-26T14:17:37;9.10;99.90
9033;DHT22;4551;53.164;8.210;2023-02-26T14:20:08;9.20;99.90
9033;DHT22;4551;53.164;8.210;2023-02-26T14:22:45;9.30;99.90
9033;DHT22;4551;53.164;8.210;2023-02-26T14:25:15;9.40;99.90
9033;DHT22;4551;53.164;8.210;2023-02-26T14:27:45;9.20;99.90
9033;DHT22;4551;53.164;8.210;2023-02-26T14:30:16;9.00;99.90
9033;DHT22;4551;53.164;8.210;2023-02-26T14:32:45;8.90;99.90
9033;DHT22;4551;53.164;8.210;2023-02-26T14:35:30;9.00;99.90
9033;DHT22;4551;53.164;8.210;2023-02-26T14:38:01;9.20;99.90
9033;DHT22;4551;53.164;8.210;2023-02-26T14:40:31;9.10;99.90
9033;DHT22;4551;53.164;8.210;2023-02-26T14:43:04;9.00;99.90
9033;DHT22;4551;53.164;8.210;2023-02-26T14:45:35;8.80;99.90
9033;DHT22;4551;53.164;8.210;2023-02-26T14:48:10;8.30;99.90
9033;DHT22;4551;53.164;8.210;2023-02-26T14:50:41;8.10;99.90
9033;DHT22;4551;53.164;8.210;2023-02-26T14:53:18;8.10;99.90
9033;DHT22;4551;53.164;8.210;2023-02-26T14:55:55;8.10;99.90
9033;DHT22;4551;53.164;8.210;2023-02-26T14:58:35;8.30;99.90
9033;DHT22;4551;53.164;8.210;2023-02-26T15:01:21;8.40;99.90
9033;DHT22;4551;53.164;8.210;2023-02-26T15:04:02;8.70;99.90
9033;DHT22;4551;53.164;8.210;2023-02-26T15:06:47;8.70;99.90
9033;DHT22;4551;53.164;8.210;2023-02-26T15:09:19;8.80;99.90
9033;DHT22;4551;53.164;8.210;2023-02-26T15:11:53;8.70;99.90
9033;DHT22;4551;53.164;8.210;2023-02-26T15:14:37;8.40;99.90
9033;DHT22;4551;53.164;8.210;2023-02-26T15:17:10;8.60;99.90
9033;DHT22;4551;53.164;8.210;2023-02-26T15:19:47;8.30;99.90
9033;DHT22;4551;53.164;8.210;2023-02-26T15:22:21;8.20;99.90
9033;DHT22;4551;53.164;8.210;2023-02-26T15:24:52;8.20;99.90
9033;DHT22;4551;53.164;8.210;2023-02-26T15:27:20;8.00;99.90
9033;DHT22;4551;53.164;8.210;2023-02-26T15:29:48;8.00;99.90
9033;DHT22;4551;53.164;8.210;2023-02-26T15:32:22;8.10;99.90
9033;DHT22;4551;53.164;8.210;2023-02-26T15:34:58;8.20;99.90
9033;DHT22;4551;53.164;8.210;2023-02-26T15:37:27;8.30;99.90
9033;DHT22;4551;53.164;8.210;2023-02-26T15:39:57;8.50;99.90
9033;DHT22;4551;53.164;8.210;2023-02-26T15:42:27;8.60;99.90
9033;DHT22;4551;53.164;8.210;2023-02-26T15:44:58;8.50;99.90
9033;DHT22;4551;53.164;8.210;2023-02-26T15:47:27;8.50;99.90
9033;DHT22;4551;53.164;8.210;2023-02-26T15:49:55;8.50;99.90
9033;DHT22;4551;53.164;8.210;2023-02-26T15:52:26;8.50;99.90
9033;DHT22;4551;53.164;8.210;2023-02-26T15:54:55;8.50;99.90
9033;DHT22;4551;53.164;8.210;2023-02-26T15:57:35;8.40;99.90
9033;DHT22;4551;53.164;8.210;2023-02-26T16:00:05;8.30;99.90
9033;DHT22;4551;53.164;8.210;2023-02-26T16:02:36;8.10;99.90
9033;DHT22;4551;53.164;8.210;2023-02-26T16:05:05;8.00;99.90
9033;DHT22;4551;53.164;8.210;2023-02-26T16:07:35;7.90;99.90
9033;DHT22;4551;53.164;8.210;2023-02-26T16:10:14;7.90;99.90
9033;DHT22;4551;53.164;8.210;2023-02-26T16:12:44;8.00;99.90
9033;DHT22;4551;53.164;8.210;2023-02-26T16:15:15;7.90;99.90
9033;DHT22;4551;53.164;8.210;2023-02-26T16:17:47;7.80;99.90
9033;DHT22;4551;53.164;8.210;2023-02-26T16:20:17;7.80;99.90
9033;DHT22;4551;53.164;8.210;2023-02-26T16:22:46;7.70;99.90
9033;DHT22;4551;53.164;8.210;2023-02-26T16:25:19;7.50;99.90
9033;DHT22;4551;53.164;8.210;2023-02-26T16:27:53;7.30;99.90
9033;DHT22;4551;53.164;8.210;2023-02-26T16:30:25;7.10;99.90
9033;DHT22;4551;53.164;8.210;2023-02-26T16:32:57;6.90;99.90
9033;DHT22;4551;53.164;8.210;2023-02-26T16:35:27;6.70;99.90
9033;DHT22;4551;53.164;8.210;2023-02-26T16:37:55;6.40;99.90
9033;DHT22;4551;53.164;8.210;2023-02-26T16:40:24;6.20;99.90
9033;DHT22;4551;53.164;8.210;2023-02-26T16:42:59;6.00;99.90
9033;DHT22;4551;53.164;8.210;2023-02-26T16:48:16;5.90;99.90
9033;DHT22;4551;53.164;8.210;2023-02-26T16:50:45;5.80;99.90
9033;DHT22;4551;53.164;8.210;2023-02-26T16:53:17;5.70;99.90
9033;DHT22;4551;53.164;8.210;2023-02-26T16:55:46;5.60;99.90
9033;DHT22;4551;53.164;8.210;2023-02-26T16:58:17;5.40;99.90